»·PEaware :: N664NT KEWR-KJFK

N664NT :: KEWR-KJFK

FLIGHT INFORMATION

Flight Status: Arrived
Operator: Privately registered:
United States
More flights under this callsign
Pilot: Anonymous 328 (328)
Aircraft: Unknown
(GA7C)
More flights by this aircraft type
Origin: KEWR Newark Intl
United States
Destination: KJFK Kennedy Intl
United States
More flights between these airports :: More routes between these airports
Route: EWR4 BREZY V39 CMK V419 JUDDS NELIE MAD DPK
File this flight plan on PilotEdge
Remarks:
Altitude:
(Current/Filed)
11,000ft
Speed:
(Current/Filed)
0kts
Departed: 01-Dec-22 06:41 AM
Arrived: 01-Dec-22 07:31 AM
Distance/Time
Traveled:
19nm/0:50
Distance/Time
To Go:
Arrived

Flight Plot

Page will automatically refresh every two minutes.

Flight plan parsing failed; only flown route is shown


Map Options




Map Legend


Flown Route
Filed Route
Departure Airport
Arrival Airport
Navaid (VOR, NDB)
Fix

Horizontal Profiles

Position Reports

Time Latitude Longitude Heading Altitude Ground
Speed
01-Dec-22 06:33 40.676186 -74.180443 161 19ft 0kts
01-Dec-22 06:34 40.676186 -74.180443 161 19ft 0kts
01-Dec-22 06:35 40.676186 -74.180443 161 19ft 0kts
01-Dec-22 06:36 40.676186 -74.180443 161 19ft 0kts
01-Dec-22 06:37 40.676186 -74.180443 161 19ft 0kts
01-Dec-22 06:38 40.676186 -74.180443 161 19ft 0kts
01-Dec-22 06:39 40.676426 -74.178818 27 19ft 19kts
01-Dec-22 06:40 40.711517 -74.148125 48 2711ft 212kts
01-Dec-22 06:41 40.751156 -74.092018 44 7264ft 210kts
01-Dec-22 06:42 40.808731 -74.111336 295 10008ft 291kts
01-Dec-22 06:43 40.831310 -74.229454 309 10005ft 345kts
01-Dec-22 06:44 40.921421 -74.245789 20 10982ft 372kts
01-Dec-22 06:45 41.019302 -74.199776 19 11007ft 373kts
01-Dec-22 06:46 41.109150 -74.136902 54 11010ft 373kts
01-Dec-22 06:47 41.150440 -74.010582 67 11008ft 373kts
01-Dec-22 06:48 41.189224 -73.883102 68 11009ft 373kts
01-Dec-22 06:49 41.227943 -73.754990 68 11005ft 373kts
01-Dec-22 06:50 41.266514 -73.626709 68 11004ft 373kts
01-Dec-22 06:51 41.328140 -73.517838 45 11007ft 373kts
01-Dec-22 06:52 41.400757 -73.419106 47 11001ft 373kts
01-Dec-22 06:53 41.471359 -73.318283 46 10983ft 374kts
01-Dec-22 06:54 41.542202 -73.216698 47 11000ft 373kts
01-Dec-22 06:55 41.617550 -73.121696 37 11017ft 373kts
01-Dec-22 06:56 41.696548 -73.032143 41 11005ft 373kts
01-Dec-22 06:57 41.774857 -72.940681 41 11005ft 373kts
01-Dec-22 06:58 41.850185 -72.852791 40 8801ft 353kts
01-Dec-22 06:59 41.918861 -72.772758 40 6807ft 302kts
01-Dec-22 07:00 41.965118 -72.691887 96 5095ft 270kts
01-Dec-22 07:01 41.910286 -72.633797 163 3336ft 264kts
01-Dec-22 07:02 41.841602 -72.650650 216 2028ft 257kts
01-Dec-22 07:03 41.792580 -72.719933 223 2002ft 257kts
01-Dec-22 07:04 41.738987 -72.783447 228 2001ft 257kts
01-Dec-22 07:05 41.688110 -72.853851 227 3319ft 271kts
01-Dec-22 07:06 41.636005 -72.922180 196 4728ft 266kts
01-Dec-22 07:07 41.569279 -72.884644 147 6825ft 273kts
01-Dec-22 07:08 41.504295 -72.828392 147 8999ft 283kts
01-Dec-22 07:09 41.434204 -72.776588 152 10005ft 307kts
01-Dec-22 07:10 41.356644 -72.722595 156 10007ft 290kts
01-Dec-22 07:11 41.283772 -72.730026 212 10006ft 265kts
01-Dec-22 07:12 41.227951 -72.793976 221 9202ft 262kts
01-Dec-22 07:13 41.173843 -72.857513 221 8005ft 257kts
01-Dec-22 07:14 41.120522 -72.920174 221 6844ft 253kts
01-Dec-22 07:15 41.068203 -72.981613 221 6007ft 250kts
01-Dec-22 07:16 41.017799 -73.040718 221 6002ft 214kts
01-Dec-22 07:17 40.977753 -73.087463 221 6004ft 185kts
01-Dec-22 07:18 40.939133 -73.132515 221 6002ft 184kts
01-Dec-22 07:19 40.900608 -73.177376 221 6002ft 185kts
01-Dec-22 07:20 40.861946 -73.222382 221 5557ft 184kts
01-Dec-22 07:21 40.823391 -73.267143 221 4652ft 201kts
01-Dec-22 07:22 40.789204 -73.333725 264 3749ft 231kts
01-Dec-22 07:23 40.780975 -73.417839 262 3005ft 229kts
01-Dec-22 07:24 40.772995 -73.501335 262 3002ft 229kts
01-Dec-22 07:25 40.765198 -73.582397 262 3007ft 208kts
01-Dec-22 07:26 40.745876 -73.646957 214 2402ft 195kts
01-Dec-22 07:27 40.709293 -73.687157 219 1728ft 155kts
01-Dec-22 07:28 40.678310 -73.726593 221 860ft 153kts
01-Dec-22 07:29 40.642754 -73.756790 211 26ft 150kts
01-Dec-22 07:30 40.634201 -73.763535 210 20ft 0kts
01-Dec-22 07:31 40.634201 -73.763535 210 20ft 0kts
01-Dec-22 07:32 40.634201 -73.763535 210 20ft 0kts
01-Dec-22 07:33 40.634201 -73.763535 210 20ft 0kts
01-Dec-22 07:34 40.634201 -73.763535 210 20ft 0kts
01-Dec-22 07:35 40.634201 -73.763535 210 20ft 0kts
01-Dec-22 07:36 40.634201 -73.763535 210 20ft 0kts
01-Dec-22 07:37 40.634201 -73.763535 210 20ft 0kts
01-Dec-22 07:38 40.634201 -73.763535 210 20ft 0kts
01-Dec-22 07:39 40.634201 -73.763535 210 20ft 0kts
01-Dec-22 07:40 40.634201 -73.763535 210 20ft 0kts
01-Dec-22 07:41 40.634201 -73.763535 210 20ft 0kts

Navigation Log

Ident Type
Flight plan parsing failed, navigation log unavailable